createdAt,value
2022-08-18T00:02:43.470Z,17.12
2022-08-18T00:05:45.467Z,17.02
2022-08-18T00:08:30.369Z,16.98
2022-08-18T00:11:15.133Z,16.94
2022-08-18T00:14:00.014Z,16.91
2022-08-18T00:16:44.849Z,16.90
2022-08-18T00:19:45.933Z,16.94
2022-08-18T00:22:32.959Z,16.96
2022-08-18T00:25:18.160Z,17.00
2022-08-18T00:28:02.900Z,17.04
2022-08-18T00:30:47.827Z,17.06
2022-08-18T00:33:38.465Z,17.01
2022-08-18T00:36:23.267Z,16.95
2022-08-18T00:39:08.079Z,16.93
2022-08-18T00:41:52.728Z,16.98
2022-08-18T00:44:37.692Z,16.93
2022-08-18T00:47:42.030Z,16.84
2022-08-18T00:50:27.693Z,16.72
2022-08-18T00:53:12.575Z,16.62
2022-08-18T00:55:57.219Z,16.52
2022-08-18T00:58:42.136Z,16.53
2022-08-18T01:01:26.848Z,16.64
2022-08-18T01:04:12.312Z,16.66
2022-08-18T01:06:57.085Z,16.73
2022-08-18T01:09:41.981Z,16.80
2022-08-18T01:12:46.407Z,16.84
2022-08-18T01:15:31.526Z,16.89
2022-08-18T01:18:16.276Z,16.91
2022-08-18T01:21:00.973Z,16.93
2022-08-18T01:23:45.894Z,16.98
2022-08-18T01:26:30.683Z,17.03
2022-08-18T01:29:18.803Z,17.00
2022-08-18T01:32:04.525Z,16.98
2022-08-18T01:34:49.230Z,17.00
2022-08-18T01:37:33.875Z,16.98
2022-08-18T01:41:24.576Z,16.96
2022-08-18T01:43:23.408Z,16.93
2022-08-18T01:46:08.267Z,16.95
2022-08-18T01:48:53.049Z,16.99
2022-08-18T01:51:40.642Z,16.97
2022-08-18T01:54:26.183Z,16.96
2022-08-18T01:57:10.960Z,16.95
2022-08-18T01:59:55.820Z,17.00
2022-08-18T02:02:40.586Z,17.00
2022-08-18T02:05:25.473Z,17.04
2022-08-18T02:08:10.238Z,17.00
2022-08-18T02:10:55.028Z,16.98
2022-08-18T02:13:39.860Z,16.91
2022-08-18T02:16:24.498Z,16.84
2022-08-18T02:19:09.449Z,16.84
2022-08-18T02:21:54.149Z,16.73
2022-08-18T02:24:39.004Z,16.52
2022-08-18T02:27:23.556Z,16.43
2022-08-18T02:30:08.381Z,16.42
2022-08-18T02:32:53.144Z,16.38
2022-08-18T02:35:37.934Z,16.37
2022-08-18T02:38:22.627Z,16.37
2022-08-18T02:41:08.862Z,16.39
2022-08-18T02:43:53.592Z,16.41
2022-08-18T02:46:39.390Z,16.40
2022-08-18T02:49:24.456Z,16.41
2022-08-18T02:52:09.355Z,16.42
2022-08-18T02:54:54.120Z,16.38
2022-08-18T02:57:38.926Z,16.37
2022-08-18T03:00:23.810Z,16.37
2022-08-18T03:03:08.675Z,16.34
2022-08-18T03:05:53.506Z,16.33
2022-08-18T03:08:38.378Z,16.28
2022-08-18T03:11:23.019Z,16.25
2022-08-18T03:14:11.258Z,16.24
2022-08-18T03:16:56.636Z,16.07
2022-08-18T03:19:41.377Z,15.93
2022-08-18T03:22:29.663Z,15.85
2022-08-18T03:25:16.155Z,15.76
2022-08-18T03:28:00.986Z,15.79
2022-08-18T03:30:45.743Z,15.88
2022-08-18T03:33:30.543Z,15.91
2022-08-18T03:36:15.398Z,15.95
2022-08-18T03:39:00.142Z,15.86
2022-08-18T03:41:59.798Z,15.77
2022-08-18T03:44:45.962Z,15.80
2022-08-18T03:47:30.805Z,15.84
2022-08-18T03:50:15.463Z,15.90
2022-08-18T03:53:00.275Z,15.97
2022-08-18T03:55:45.104Z,15.98
2022-08-18T03:58:29.871Z,16.03
2022-08-18T04:01:14.659Z,16.07
2022-08-18T04:04:11.671Z,16.18
2022-08-18T04:06:56.495Z,16.26
2022-08-18T04:09:41.361Z,16.33
2022-08-18T04:12:26.241Z,16.34
2022-08-18T04:15:11.005Z,16.32
2022-08-18T04:18:03.293Z,16.36
2022-08-18T04:20:59.197Z,16.26
2022-08-18T04:23:44.656Z,16.25
2022-08-18T04:26:29.406Z,16.12
2022-08-18T04:29:14.248Z,16.12
2022-08-18T04:31:59.108Z,16.16
2022-08-18T04:34:43.876Z,16.15
2022-08-18T04:37:28.662Z,16.17
2022-08-18T04:40:13.499Z,16.17
2022-08-18T04:42:58.801Z,16.14
2022-08-18T04:45:43.470Z,16.12
2022-08-18T04:48:28.319Z,16.10
2022-08-18T04:51:13.557Z,16.10
2022-08-18T04:54:18.297Z,16.05
2022-08-18T04:57:03.125Z,16.10
2022-08-18T04:59:47.873Z,16.08
2022-08-18T05:02:32.869Z,16.09
2022-08-18T05:05:17.912Z,16.10
2022-08-18T05:08:02.669Z,16.13
2022-08-18T05:10:47.518Z,16.10
2022-08-18T05:13:32.307Z,16.02
2022-08-18T05:16:27.476Z,16.03
2022-08-18T05:19:13.078Z,16.04
2022-08-18T05:21:59.997Z,16.04
2022-08-18T05:24:47.401Z,16.06
2022-08-18T05:27:32.195Z,16.04
2022-08-18T05:30:17.047Z,16.00
2022-08-18T05:33:01.824Z,15.95
2022-08-18T05:35:46.731Z,15.88
2022-08-18T05:38:31.629Z,15.86
2022-08-18T05:41:16.516Z,15.75
2022-08-18T05:44:02.495Z,15.65
2022-08-18T05:46:47.461Z,15.57
2022-08-18T05:49:32.252Z,15.51
2022-08-18T05:52:17.027Z,15.52
2022-08-18T05:55:02.003Z,15.62
2022-08-18T05:57:46.724Z,15.72
2022-08-18T06:00:31.472Z,15.98
2022-08-18T06:03:16.218Z,19.02
2022-08-18T06:06:01.382Z,21.69
2022-08-18T06:08:46.067Z,23.29
2022-08-18T06:11:30.871Z,24.33
2022-08-18T06:14:15.633Z,25.50
2022-08-18T06:17:00.528Z,26.09
2022-08-18T06:19:45.259Z,26.87
2022-08-18T06:22:31.297Z,27.70
2022-08-18T06:25:16.453Z,28.28
2022-08-18T06:28:02.759Z,27.97
2022-08-18T06:30:47.571Z,27.28
2022-08-18T06:33:32.257Z,27.40
2022-08-18T06:36:18.737Z,27.58
2022-08-18T06:39:04.433Z,27.21
2022-08-18T06:41:49.137Z,27.76
2022-08-18T06:44:33.927Z,28.44
2022-08-18T06:47:18.663Z,28.47
2022-08-18T06:50:03.269Z,29.21
2022-08-18T06:52:47.966Z,29.55
2022-08-18T06:55:32.687Z,30.34
2022-08-18T06:58:17.366Z,30.11
2022-08-18T07:01:02.255Z,30.10
2022-08-18T07:03:47.601Z,30.36
2022-08-18T07:06:32.290Z,30.48
2022-08-18T07:09:17.126Z,30.83
2022-08-18T07:12:01.876Z,31.27
2022-08-18T07:14:46.843Z,31.46
2022-08-18T07:17:52.908Z,31.87
2022-08-18T07:20:36.279Z,32.03
2022-08-18T07:23:21.047Z,32.36
2022-08-18T07:26:05.767Z,32.63
2022-08-18T07:28:50.622Z,32.51
2022-08-18T07:31:35.431Z,32.74
2022-08-18T07:34:20.087Z,31.82
2022-08-18T07:37:04.896Z,30.90
2022-08-18T07:39:49.688Z,29.08
2022-08-18T07:43:00.855Z,27.86
2022-08-18T07:45:40.760Z,26.70
2022-08-18T07:48:38.028Z,25.75
2022-08-18T07:51:23.867Z,25.15
2022-08-18T07:54:20.036Z,24.68
2022-08-18T07:57:19.204Z,24.18
2022-08-18T08:00:05.146Z,23.56
2022-08-18T08:02:55.326Z,23.33
2022-08-18T08:05:40.461Z,23.11
2022-08-18T08:08:25.740Z,22.82
2022-08-18T08:11:10.893Z,22.61
2022-08-18T08:13:56.554Z,22.64
2022-08-18T08:16:41.899Z,22.26
2022-08-18T08:19:49.240Z,22.15
2022-08-18T08:22:31.815Z,22.36
2022-08-18T08:25:44.684Z,22.62
2022-08-18T08:28:21.587Z,22.51
2022-08-18T08:31:33.103Z,22.33
2022-08-18T08:34:11.360Z,22.18
2022-08-18T08:36:56.042Z,22.25
2022-08-18T08:39:40.942Z,22.32
2022-08-18T08:42:30.464Z,22.69
2022-08-18T08:45:17.297Z,22.92
2022-08-18T08:48:08.870Z,22.94
2022-08-18T08:50:54.449Z,22.99
2022-08-18T08:53:39.125Z,22.90
2022-08-18T08:56:23.984Z,23.01
2022-08-18T08:59:08.810Z,23.19
2022-08-18T09:01:53.441Z,23.14
2022-08-18T09:04:38.764Z,22.81
2022-08-18T09:07:39.699Z,22.60
2022-08-18T09:10:24.572Z,22.60
2022-08-18T09:13:09.203Z,22.44
2022-08-18T09:15:54.011Z,22.24
2022-08-18T09:18:38.704Z,21.87
2022-08-18T09:21:23.600Z,21.90
2022-08-18T09:24:08.370Z,21.93
2022-08-18T09:26:53.446Z,22.07
2022-08-18T09:29:43.973Z,22.21
2022-08-18T09:32:29.533Z,22.25
2022-08-18T09:35:14.174Z,22.42
2022-08-18T09:37:59.034Z,22.69
2022-08-18T09:43:49.159Z,23.09
2022-08-18T09:46:33.885Z,23.25
2022-08-18T09:49:18.552Z,23.37
2022-08-18T09:52:03.454Z,23.48
2022-08-18T09:54:48.061Z,23.52
2022-08-18T09:57:42.292Z,23.58
2022-08-18T10:00:29.046Z,23.64
2022-08-18T10:03:15.515Z,23.60
2022-08-18T10:06:01.289Z,23.60
2022-08-18T10:08:46.010Z,23.52
2022-08-18T10:11:30.699Z,23.25
2022-08-18T10:14:19.033Z,22.96
2022-08-18T10:17:24.007Z,22.95
2022-08-18T10:20:08.849Z,23.10
2022-08-18T10:23:11.034Z,22.95
2022-08-18T10:25:55.808Z,22.53
2022-08-18T10:28:45.172Z,21.72
2022-08-18T10:31:29.924Z,21.51
2022-08-18T10:34:19.328Z,21.30
2022-08-18T10:37:06.319Z,21.17
2022-08-18T10:39:51.859Z,21.06
2022-08-18T10:42:37.366Z,20.99
2022-08-18T10:45:25.022Z,21.02
2022-08-18T10:48:11.896Z,20.81
2022-08-18T10:51:02.560Z,20.84
2022-08-18T10:53:49.740Z,20.69
2022-08-18T10:56:35.201Z,20.77
2022-08-18T10:59:19.898Z,20.93
2022-08-18T11:02:13.722Z,21.05
2022-08-18T11:05:00.159Z,21.22
2022-08-18T11:07:45.320Z,21.28
2022-08-18T11:10:30.948Z,21.53
2022-08-18T11:13:15.850Z,21.73
2022-08-18T11:16:01.576Z,21.85
2022-08-18T11:18:46.349Z,21.93
2022-08-18T11:21:34.199Z,22.05
2022-08-18T11:24:26.931Z,22.17
2022-08-18T11:27:15.410Z,22.24
2022-08-18T11:30:00.545Z,22.30
2022-08-18T11:32:55.325Z,22.16
2022-08-18T11:35:40.527Z,21.88
2022-08-18T11:38:25.719Z,21.79
2022-08-18T11:41:14.620Z,21.79
2022-08-18T11:44:02.305Z,21.85
2022-08-18T11:46:51.712Z,21.84
2022-08-18T11:49:37.244Z,21.83
2022-08-18T11:52:29.618Z,21.90
2022-08-18T11:55:23.873Z,21.83
2022-08-18T11:58:12.532Z,21.80
2022-08-18T12:01:01.577Z,21.66
2022-08-18T12:03:48.125Z,21.54
2022-08-18T12:06:32.741Z,21.47
2022-08-18T12:09:37.008Z,21.41
2022-08-18T12:12:23.560Z,21.47
2022-08-18T12:15:17.159Z,21.58
2022-08-18T12:18:07.454Z,21.29
2022-08-18T12:20:52.163Z,21.13
2022-08-18T12:23:38.876Z,20.98
2022-08-18T12:26:38.596Z,21.15
2022-08-18T12:29:33.176Z,21.29
2022-08-18T12:32:46.531Z,21.40
2022-08-18T12:35:33.296Z,21.51
2022-08-18T12:38:19.853Z,21.45
2022-08-18T12:41:04.526Z,21.35
2022-08-18T12:43:58.773Z,21.22
2022-08-18T12:46:44.532Z,21.15
2022-08-18T12:49:29.750Z,21.21
2022-08-18T12:52:14.657Z,21.16
2022-08-18T12:55:03.138Z,21.23
2022-08-18T12:57:51.984Z,21.41
2022-08-18T13:00:37.780Z,21.45
2022-08-18T13:03:23.016Z,21.46
2022-08-18T13:06:12.237Z,21.42
2022-08-18T13:08:56.962Z,21.38
2022-08-18T13:11:41.556Z,21.27
2022-08-18T13:14:26.988Z,21.28
2022-08-18T13:17:32.061Z,21.36
2022-08-18T13:20:17.026Z,21.37
2022-08-18T13:23:01.709Z,21.41
2022-08-18T13:25:46.969Z,21.47
2022-08-18T13:28:35.506Z,21.48
2022-08-18T13:31:20.793Z,21.55
2022-08-18T13:34:15.203Z,21.51
2022-08-18T13:37:04.338Z,21.56
2022-08-18T13:39:50.116Z,21.52
2022-08-18T13:42:51.090Z,21.54
2022-08-18T13:45:36.265Z,21.32
2022-08-18T13:48:21.993Z,21.23
2022-08-18T13:51:08.909Z,21.17
2022-08-18T13:54:17.426Z,21.12
2022-08-18T13:56:58.545Z,21.06
2022-08-18T13:59:46.559Z,20.98
2022-08-18T14:02:31.660Z,21.04
2022-08-18T14:05:17.794Z,20.94
2022-08-18T14:08:02.509Z,20.93
2022-08-18T14:10:47.176Z,20.93
2022-08-18T14:13:38.358Z,20.89
2022-08-18T14:16:28.710Z,20.92
2022-08-18T14:19:14.151Z,21.09
2022-08-18T14:21:59.181Z,21.02
2022-08-18T14:24:43.969Z,20.96
2022-08-18T14:27:35.178Z,20.92
2022-08-18T14:30:20.719Z,20.96
2022-08-18T14:33:05.464Z,21.10
2022-08-18T14:36:05.857Z,21.22
2022-08-18T14:38:54.094Z,21.55
2022-08-18T14:41:40.882Z,21.69
2022-08-18T14:44:34.306Z,21.89
2022-08-18T14:47:24.380Z,21.91
2022-08-18T14:50:09.951Z,21.80
2022-08-18T14:52:55.726Z,21.76
2022-08-18T14:55:40.552Z,21.47
2022-08-18T14:58:25.193Z,21.14
2022-08-18T15:01:10.550Z,21.25
2022-08-18T15:03:56.123Z,21.19
2022-08-18T15:06:41.429Z,21.32
2022-08-18T15:09:27.261Z,21.45
2022-08-18T15:12:12.376Z,21.27
2022-08-18T15:14:59.838Z,21.14
2022-08-18T15:17:52.327Z,20.94
2022-08-18T15:20:37.699Z,20.74
2022-08-18T15:23:27.999Z,20.69
2022-08-18T15:26:13.635Z,20.74
2022-08-18T15:29:00.274Z,20.69
2022-08-18T15:31:55.449Z,20.61
2022-08-18T15:34:47.361Z,20.57
2022-08-18T15:37:36.366Z,20.50
2022-08-18T15:40:30.921Z,20.61
2022-08-18T15:43:20.917Z,20.52
2022-08-18T15:46:05.556Z,20.73
2022-08-18T15:48:50.470Z,20.78
2022-08-18T15:51:35.549Z,20.85
2022-08-18T15:54:25.965Z,20.89
2022-08-18T15:57:10.679Z,20.99
2022-08-18T16:00:15.491Z,21.18
2022-08-18T16:03:00.352Z,21.28
2022-08-18T16:05:45.631Z,21.33
2022-08-18T16:08:30.378Z,21.31
2022-08-18T16:11:28.322Z,21.29
2022-08-18T16:14:14.598Z,21.25
2022-08-18T16:17:01.808Z,21.17
2022-08-18T16:19:46.902Z,21.14
2022-08-18T16:22:31.591Z,21.10
2022-08-18T16:25:16.466Z,21.08
2022-08-18T16:28:01.895Z,21.10
2022-08-18T16:30:46.900Z,21.07
2022-08-18T16:33:31.567Z,21.13
2022-08-18T16:36:16.367Z,21.12
2022-08-18T16:39:01.083Z,21.06
2022-08-18T16:41:45.780Z,20.94
2022-08-18T16:44:30.624Z,20.65
2022-08-18T16:47:15.320Z,20.48
2022-08-18T16:50:00.367Z,20.44
2022-08-18T16:52:45.616Z,20.29
2022-08-18T16:55:31.011Z,20.16
2022-08-18T16:58:15.872Z,20.14
2022-08-18T17:01:00.621Z,19.98
2022-08-18T17:03:45.481Z,19.87
2022-08-18T17:06:30.500Z,19.73
2022-08-18T17:09:15.323Z,19.67
2022-08-18T17:11:59.983Z,19.69
2022-08-18T17:14:44.828Z,19.72
2022-08-18T17:17:29.544Z,19.80
2022-08-18T17:20:16.715Z,19.83
2022-08-18T17:23:03.704Z,19.86
2022-08-18T17:25:48.457Z,19.87
2022-08-18T17:28:35.518Z,19.90
2022-08-18T17:31:20.188Z,19.86
2022-08-18T17:34:05.022Z,19.86
2022-08-18T17:36:52.957Z,19.83
2022-08-18T17:39:37.983Z,19.86
2022-08-18T17:42:22.858Z,19.85
2022-08-18T17:45:07.632Z,19.79
2022-08-18T17:47:53.869Z,19.76
2022-08-18T17:50:38.579Z,19.74
2022-08-18T17:53:23.447Z,19.76
2022-08-18T17:56:08.296Z,19.66
2022-08-18T17:58:53.190Z,19.52
2022-08-18T18:01:38.525Z,19.34
2022-08-18T18:04:23.682Z,19.24
2022-08-18T18:07:08.507Z,19.21
2022-08-18T18:09:53.359Z,19.18
2022-08-18T18:12:38.098Z,19.21
2022-08-18T18:15:22.768Z,19.17
2022-08-18T18:18:12.572Z,19.20
2022-08-18T18:20:57.435Z,19.08
2022-08-18T18:23:42.320Z,19.00
2022-08-18T18:26:27.993Z,18.88
2022-08-18T18:29:13.242Z,18.82
2022-08-18T18:31:58.640Z,18.88
2022-08-18T18:34:43.943Z,18.88
2022-08-18T18:37:28.533Z,18.97
2022-08-18T18:40:13.427Z,19.01
2022-08-18T18:42:58.613Z,19.02
2022-08-18T18:45:43.289Z,18.98
2022-08-18T18:48:48.188Z,18.96
2022-08-18T18:51:35.693Z,18.95
2022-08-18T18:54:20.708Z,18.87
2022-08-18T18:57:07.074Z,18.84
2022-08-18T18:59:54.732Z,18.77
2022-08-18T19:02:40.117Z,18.70
2022-08-18T19:05:25.050Z,18.70
2022-08-18T19:08:09.854Z,18.66
2022-08-18T19:10:54.671Z,18.64
2022-08-18T19:13:39.390Z,18.48
2022-08-18T19:16:24.684Z,18.30
2022-08-18T19:19:35.730Z,18.20
2022-08-18T19:22:18.586Z,18.13
2022-08-18T19:25:03.678Z,18.04
2022-08-18T19:27:49.712Z,17.98
2022-08-18T19:30:34.754Z,17.92
2022-08-18T19:33:19.710Z,17.87
2022-08-18T19:36:10.842Z,17.85
2022-08-18T19:39:04.750Z,17.91
2022-08-18T19:41:49.587Z,17.99
2022-08-18T19:44:34.486Z,18.04
2022-08-18T19:47:19.158Z,18.14
2022-08-18T19:50:08.374Z,18.24
2022-08-18T19:52:53.307Z,18.31
2022-08-18T19:55:38.011Z,18.31
2022-08-18T19:58:22.708Z,18.30
2022-08-18T20:01:07.412Z,18.31
2022-08-18T20:03:54.574Z,18.31
2022-08-18T20:06:39.405Z,18.26
2022-08-18T20:09:26.055Z,18.24
2022-08-18T20:12:10.829Z,18.22
2022-08-18T20:14:55.653Z,18.16
2022-08-18T20:17:40.483Z,18.17
2022-08-18T20:20:25.411Z,18.21
2022-08-18T20:23:10.150Z,18.32
2022-08-18T20:25:55.054Z,18.17
2022-08-18T20:28:39.769Z,18.22
2022-08-18T20:31:24.455Z,18.26
2022-08-18T20:34:13.411Z,18.21
2022-08-18T20:36:58.918Z,18.14
2022-08-18T20:39:43.720Z,18.16
2022-08-18T20:42:28.860Z,18.27
2022-08-18T20:45:14.685Z,18.42
2022-08-18T20:47:59.517Z,18.40
2022-08-18T20:50:44.224Z,18.34
2022-08-18T20:53:30.334Z,18.30
2022-08-18T20:56:31.681Z,18.19
2022-08-18T20:59:21.559Z,18.15
2022-08-18T21:02:06.422Z,18.11
2022-08-18T21:04:51.198Z,18.04
2022-08-18T21:07:37.777Z,18.01
2022-08-18T21:10:22.800Z,17.95
2022-08-18T21:13:07.587Z,17.76
2022-08-18T21:15:52.316Z,17.66
2022-08-18T21:18:37.006Z,17.57
2022-08-18T21:21:26.791Z,17.60
2022-08-18T21:24:12.154Z,17.67
2022-08-18T21:26:57.008Z,17.72
2022-08-18T21:29:47.264Z,17.76
2022-08-18T21:32:34.772Z,17.74
2022-08-18T21:35:19.599Z,17.74
2022-08-18T21:38:04.695Z,17.74
2022-08-18T21:40:49.747Z,17.78
2022-08-18T21:43:34.647Z,17.79
2022-08-18T21:46:19.423Z,17.85
2022-08-18T21:49:04.405Z,17.84
2022-08-18T21:51:49.246Z,17.80
2022-08-18T21:54:34.355Z,17.81
2022-08-18T21:57:19.869Z,17.80
2022-08-18T22:00:04.579Z,17.81
2022-08-18T22:02:49.562Z,17.67
2022-08-18T22:05:58.347Z,17.55
2022-08-18T22:08:38.998Z,17.44
2022-08-18T22:11:59.601Z,17.44
2022-08-18T22:14:28.827Z,17.33
2022-08-18T22:17:13.568Z,17.26
2022-08-18T22:19:58.322Z,17.26
2022-08-18T22:22:43.151Z,17.20
2022-08-18T22:25:28.021Z,17.21
2022-08-18T22:28:12.782Z,17.24
2022-08-18T22:30:57.619Z,17.24
2022-08-18T22:33:42.268Z,17.28
2022-08-18T22:36:27.085Z,17.35
2022-08-18T22:39:11.869Z,17.40
2022-08-18T22:41:56.660Z,17.49
2022-08-18T22:44:41.389Z,17.54
2022-08-18T22:47:26.263Z,17.60
2022-08-18T22:50:11.057Z,17.65
2022-08-18T22:52:55.849Z,17.67
2022-08-18T22:55:40.599Z,17.69
2022-08-18T22:58:26.892Z,17.74
2022-08-18T23:01:13.041Z,17.75
2022-08-18T23:03:57.972Z,17.77
2022-08-18T23:06:42.674Z,17.76
2022-08-18T23:09:27.589Z,17.78
2022-08-18T23:12:12.355Z,17.76
2022-08-18T23:14:57.109Z,17.76
2022-08-18T23:17:41.800Z,17.78
2022-08-18T23:20:26.795Z,17.76
2022-08-18T23:23:11.540Z,17.78
2022-08-18T23:25:56.387Z,17.77
2022-08-18T23:28:41.253Z,17.79
2022-08-18T23:31:26.022Z,17.77
2022-08-18T23:34:10.854Z,17.68
2022-08-18T23:36:55.502Z,17.64
2022-08-18T23:39:41.833Z,17.59
2022-08-18T23:42:28.539Z,17.57
2022-08-18T23:45:13.186Z,17.53
2022-08-18T23:47:58.077Z,17.48
2022-08-18T23:50:42.822Z,17.47
2022-08-18T23:53:27.692Z,17.44
2022-08-18T23:56:12.398Z,17.38
2022-08-18T23:58:57.497Z,17.29
